Time;durP1;ratioP1;P1;durP2;ratioP2;P2;SDS_P1;SDS_P2;PMS_P1;PMS_P2;Temp;Humidity;BMP_temperature;BMP_pressure;BME280_temperature;BME280_humidity;BME280_pressure;Samples;Min_cycle;Max_cycle;Signal;HPM_P1;HPM_P2
2024/03/17 00:02:20;;;;;;;10.98;2.42;;;6.70;99.90;;;;;;5012132;28;20407;-73
2024/03/17 00:04:46;;;;;;;8.85;2.58;;;6.70;99.90;;;;;;5013923;28;20168;-72
2024/03/17 00:07:12;;;;;;;7.95;1.90;;;6.70;99.90;;;;;;5017688;28;20034;-71
2024/03/17 00:09:38;;;;;;;7.30;2.30;;;6.70;99.90;;;;;;5018955;28;20515;-72
2024/03/17 00:12:04;;;;;;;7.72;2.05;;;6.60;99.90;;;;;;5013254;28;20042;-73
2024/03/17 00:14:30;;;;;;;4.70;2.03;;;6.60;99.90;;;;;;5012033;28;20053;-71
2024/03/17 00:16:56;;;;;;;9.60;2.58;;;6.70;99.90;;;;;;4995226;28;20491;-72
2024/03/17 00:19:23;;;;;;;7.18;2.15;;;6.70;99.90;;;;;;5013092;28;20527;-71
2024/03/17 00:21:50;;;;;;;7.68;3.08;;;6.70;99.90;;;;;;4996254;28;20495;-72
2024/03/17 00:24:16;;;;;;;8.02;2.70;;;6.70;99.90;;;;;;5008283;28;20048;-71
2024/03/17 00:26:42;;;;;;;11.73;3.10;;;6.70;99.90;;;;;;5013255;28;20046;-71
2024/03/17 00:29:07;;;;;;;9.43;2.47;;;6.70;99.90;;;;;;5010545;28;20159;-75
2024/03/17 00:31:33;;;;;;;12.32;2.45;;;6.70;99.90;;;;;;4993087;28;20565;-72
2024/03/17 00:33:59;;;;;;;10.75;3.40;;;6.70;99.90;;;;;;5018258;28;20030;-73
2024/03/17 00:36:24;;;;;;;9.70;3.33;;;6.70;99.90;;;;;;5016437;28;20037;-72
2024/03/17 00:38:51;;;;;;;9.80;3.15;;;6.70;99.90;;;;;;5011498;28;20037;-72
2024/03/17 00:41:17;;;;;;;8.13;2.53;;;6.70;99.90;;;;;;5017544;28;20036;-72
2024/03/17 00:43:43;;;;;;;8.27;2.20;;;6.60;99.90;;;;;;5011929;28;20129;-74
2024/03/17 00:46:08;;;;;;;8.55;2.13;;;6.70;99.90;;;;;;5014072;28;20022;-73
2024/03/17 00:48:34;;;;;;;9.70;2.15;;;6.70;99.90;;;;;;5009890;28;20060;-72
2024/03/17 00:50:59;;;;;;;17.95;3.38;;;6.70;99.90;;;;;;4991619;28;20034;-72
2024/03/17 00:53:25;;;;;;;6.45;2.63;;;6.70;99.90;;;;;;5007710;28;20041;-71
2024/03/17 00:55:57;;;;;;;14.05;2.92;;;6.60;99.90;;;;;;5012921;28;20121;-73
2024/03/17 00:58:23;;;;;;;9.82;3.83;;;6.70;99.90;;;;;;4994647;28;20034;-71
2024/03/17 01:00:49;;;;;;;8.40;2.97;;;6.70;99.90;;;;;;5012916;28;20041;-72
2024/03/17 01:03:15;;;;;;;5.15;1.77;;;6.70;99.90;;;;;;5012989;28;20486;-74
2024/03/17 01:05:43;;;;;;;14.05;3.10;;;6.70;99.90;;;;;;5011044;28;20403;-71
2024/03/17 01:08:09;;;;;;;10.63;2.50;;;6.70;99.90;;;;;;5014372;28;20034;-72
2024/03/17 01:10:40;;;;;;;5.20;2.33;;;6.80;99.90;;;;;;5010988;28;20095;-71
2024/03/17 01:13:07;;;;;;;9.15;2.60;;;6.80;99.90;;;;;;5000061;28;20529;-73
2024/03/17 01:15:34;;;;;;;3.47;1.90;;;6.80;99.90;;;;;;5014756;28;20065;-74
2024/03/17 01:18:00;;;;;;;9.40;2.35;;;6.80;99.90;;;;;;5022593;28;20083;-72
2024/03/17 01:20:26;;;;;;;9.15;2.08;;;6.80;99.90;;;;;;5013219;28;20042;-73
2024/03/17 01:22:52;;;;;;;4.88;2.75;;;6.90;99.90;;;;;;5011582;28;20423;-72
2024/03/17 01:25:18;;;;;;;9.73;3.17;;;6.90;99.90;;;;;;4995494;28;20487;-70
2024/03/17 01:27:43;;;;;;;6.10;1.98;;;6.90;99.90;;;;;;5011710;28;20041;-71
2024/03/17 01:30:10;;;;;;;9.30;2.42;;;6.90;99.90;;;;;;5014899;28;20059;-72
2024/03/17 01:32:36;;;;;;;7.95;2.55;;;6.90;99.90;;;;;;5012101;28;20057;-72
2024/03/17 01:35:01;;;;;;;6.85;2.75;;;6.90;99.90;;;;;;5015793;28;20022;-73
2024/03/17 01:37:27;;;;;;;7.32;2.20;;;6.80;99.90;;;;;;5012584;28;22155;-72
2024/03/17 01:39:52;;;;;;;8.63;2.60;;;6.80;99.90;;;;;;5015212;28;20044;-73
2024/03/17 01:42:18;;;;;;;6.68;2.67;;;6.80;99.90;;;;;;5000733;28;20041;-73
2024/03/17 01:44:43;;;;;;;14.73;3.35;;;6.80;99.90;;;;;;5018116;28;20120;-71
2024/03/17 01:47:09;;;;;;;9.02;2.65;;;6.80;99.90;;;;;;4980071;28;20074;-71
2024/03/17 01:49:36;;;;;;;7.07;2.30;;;6.80;99.90;;;;;;4985049;28;20026;-73
2024/03/17 01:52:03;;;;;;;5.95;2.35;;;6.80;99.90;;;;;;5013349;28;20080;-72
2024/03/17 01:54:29;;;;;;;7.03;2.67;;;6.80;99.90;;;;;;5010289;28;20119;-73
2024/03/17 01:56:55;;;;;;;7.80;2.33;;;6.80;99.90;;;;;;5011685;28;20709;-72
2024/03/17 01:59:20;;;;;;;10.63;3.08;;;6.70;99.90;;;;;;4994005;28;20030;-73
2024/03/17 02:01:46;;;;;;;8.52;2.78;;;6.80;99.90;;;;;;5014105;28;20810;-72
2024/03/17 02:04:11;;;;;;;5.03;2.42;;;6.80;99.90;;;;;;5020701;28;20033;-73
2024/03/17 02:06:37;;;;;;;6.00;2.30;;;6.80;99.90;;;;;;5018280;28;20030;-70
2024/03/17 02:09:03;;;;;;;9.63;2.58;;;6.90;99.90;;;;;;4997606;28;20422;-71
2024/03/17 02:11:31;;;;;;;8.73;2.65;;;6.90;99.90;;;;;;5013475;28;20489;-72
2024/03/17 02:13:58;;;;;;;6.22;2.40;;;7.00;99.90;;;;;;5016380;28;20039;-72
2024/03/17 02:16:24;;;;;;;9.05;2.42;;;7.00;99.90;;;;;;4978695;28;20627;-73
2024/03/17 02:18:54;;;;;;;5.35;1.95;;;7.10;99.90;;;;;;5012322;28;20034;-73
2024/03/17 02:21:22;;;;;;;;;;;7.10;99.90;;;;;;5009906;28;20025;-73
2024/03/17 02:23:48;;;;;;;5.90;2.30;;;7.10;99.90;;;;;;4996890;28;20216;-71
2024/03/17 02:26:13;;;;;;;9.63;2.80;;;7.10;99.90;;;;;;5015489;28;20491;-73
2024/03/17 02:28:40;;;;;;;11.48;3.00;;;7.20;99.90;;;;;;5016145;28;20468;-72
2024/03/17 02:31:08;;;;;;;6.15;2.88;;;7.20;99.90;;;;;;5011030;28;20030;-71
2024/03/17 02:33:34;;;;;;;10.20;2.75;;;7.20;99.90;;;;;;5010214;28;20049;-70
2024/03/17 02:36:00;;;;;;;5.53;2.40;;;7.20;99.90;;;;;;5007652;28;20399;-72
2024/03/17 02:41:10;;;;;;;8.88;3.42;;;7.20;99.90;;;;;;5017828;28;20125;-72
2024/03/17 02:43:36;;;;;;;8.98;3.55;;;7.20;99.90;;;;;;5016120;28;20124;-72
2024/03/17 02:46:04;;;;;;;6.20;2.97;;;7.20;99.90;;;;;;5017055;28;20041;-72
2024/03/17 02:48:30;;;;;;;8.75;2.63;;;7.20;99.90;;;;;;5012583;28;20121;-73
2024/03/17 02:50:56;;;;;;;9.32;2.75;;;7.20;99.90;;;;;;5001144;28;20030;-74
2024/03/17 02:53:21;;;;;;;11.85;2.38;;;7.20;99.90;;;;;;5017140;28;20140;-71
2024/03/17 02:55:47;;;;;;;10.90;2.78;;;7.30;99.90;;;;;;5010189;28;20123;-72
2024/03/17 02:58:13;;;;;;;9.55;2.55;;;7.20;99.90;;;;;;5016733;28;20044;-71
2024/03/17 03:00:39;;;;;;;6.43;1.92;;;7.30;99.90;;;;;;5012709;28;20049;-71
2024/03/17 03:03:05;;;;;;;13.02;2.97;;;7.30;99.90;;;;;;5016990;28;20797;-72
2024/03/17 03:05:31;;;;;;;9.48;2.92;;;7.20;99.90;;;;;;5013835;28;20151;-72
2024/03/17 03:07:56;;;;;;;6.72;2.00;;;7.20;99.90;;;;;;5019387;28;20432;-72
2024/03/17 03:10:22;;;;;;;7.32;2.95;;;7.20;99.90;;;;;;5010313;28;20029;-71
2024/03/17 03:12:47;;;;;;;9.30;2.70;;;7.20;99.90;;;;;;4997865;28;20044;-72
2024/03/17 03:15:13;;;;;;;6.97;2.47;;;7.30;99.90;;;;;;5018054;28;20138;-72
2024/03/17 03:17:39;;;;;;;5.32;2.60;;;7.30;99.90;;;;;;5020981;28;20808;-71
2024/03/17 03:20:05;;;;;;;5.15;2.55;;;7.20;99.90;;;;;;5016549;28;20044;-76
2024/03/17 03:22:31;;;;;;;4.68;2.72;;;7.30;99.90;;;;;;5012249;28;20068;-72
2024/03/17 03:24:57;;;;;;;5.55;2.20;;;7.30;99.90;;;;;;5012969;28;20042;-71
2024/03/17 03:27:24;;;;;;;6.85;2.45;;;7.40;99.90;;;;;;5002136;28;20040;-72
2024/03/17 03:29:50;;;;;;;6.82;2.20;;;7.40;99.90;;;;;;5018125;28;20068;-73
2024/03/17 03:32:15;;;;;;;4.65;2.30;;;7.40;99.90;;;;;;5000783;28;20518;-71
2024/03/17 03:34:41;;;;;;;7.15;2.55;;;7.40;99.90;;;;;;5016401;28;20041;-71
2024/03/17 03:37:08;;;;;;;6.05;2.17;;;7.40;99.90;;;;;;5014737;28;21580;-72
2024/03/17 03:39:36;;;;;;;5.28;1.95;;;7.40;99.90;;;;;;5013456;28;20057;-72
2024/03/17 03:42:02;;;;;;;8.02;3.28;;;7.50;99.90;;;;;;5013933;28;20042;-72
2024/03/17 03:44:28;;;;;;;8.63;2.22;;;7.40;99.90;;;;;;5013114;28;20446;-72
2024/03/17 03:46:58;;;;;;;5.78;2.33;;;7.40;99.90;;;;;;5015258;28;20526;-72
2024/03/17 03:49:24;;;;;;;8.25;2.53;;;7.40;99.90;;;;;;5014986;28;20409;-72
2024/03/17 03:51:50;;;;;;;8.50;2.92;;;7.40;99.90;;;;;;5019727;28;20038;-72
2024/03/17 03:54:15;;;;;;;7.35;2.47;;;7.40;99.90;;;;;;4999991;28;20125;-73
2024/03/17 03:56:41;;;;;;;5.30;2.25;;;7.40;99.90;;;;;;5009103;28;20030;-74
2024/03/17 03:59:06;;;;;;;7.53;2.22;;;7.30;99.90;;;;;;5011229;28;20537;-71
2024/03/17 04:01:32;;;;;;;7.60;2.63;;;7.30;99.90;;;;;;5014153;28;20026;-73
2024/03/17 04:03:57;;;;;;;6.43;2.47;;;7.40;99.90;;;;;;5013451;28;20038;-73
2024/03/17 04:06:23;;;;;;;4.97;2.00;;;7.40;99.90;;;;;;5012446;28;20026;-72
2024/03/17 04:08:49;;;;;;;7.43;2.40;;;7.40;99.90;;;;;;4996756;28;20407;-72
2024/03/17 04:11:14;;;;;;;8.65;2.42;;;7.40;99.90;;;;;;5019628;28;20498;-72
2024/03/17 04:13:41;;;;;;;5.55;2.40;;;7.40;99.90;;;;;;5013104;28;20402;-73
2024/03/17 04:16:07;;;;;;;4.47;2.08;;;7.40;99.90;;;;;;5018352;28;20415;-72
2024/03/17 04:18:34;;;;;;;8.40;2.05;;;7.40;99.90;;;;;;5013723;28;20042;-72
2024/03/17 04:21:05;;;;;;;4.55;2.15;;;7.40;99.90;;;;;;5013247;28;20550;-73
2024/03/17 04:23:32;;;;;;;9.60;3.13;;;7.40;99.90;;;;;;4996914;28;20072;-73
2024/03/17 04:25:59;;;;;;;7.60;3.22;;;7.50;99.90;;;;;;5015630;28;20764;-72
2024/03/17 04:28:24;;;;;;;6.78;2.40;;;7.40;99.90;;;;;;5015353;28;20025;-73
2024/03/17 04:30:50;;;;;;;6.38;2.17;;;7.50;99.90;;;;;;5011341;28;20041;-72
2024/03/17 04:33:18;;;;;;;9.15;2.70;;;7.40;99.90;;;;;;5014418;28;20044;-72
2024/03/17 04:35:44;;;;;;;7.55;2.28;;;7.50;99.90;;;;;;4997280;28;20042;-71
2024/03/17 04:38:10;;;;;;;6.47;2.78;;;7.50;99.90;;;;;;5014146;28;20056;-72
2024/03/17 04:40:42;;;;;;;5.18;2.38;;;7.50;99.90;;;;;;5018765;28;20037;-73
2024/03/17 04:43:09;;;;;;;8.07;2.63;;;7.40;99.90;;;;;;4995940;28;20048;-72
2024/03/17 04:45:34;;;;;;;6.05;2.85;;;7.40;99.90;;;;;;5013521;28;20562;-73
2024/03/17 04:48:00;;;;;;;6.60;2.20;;;7.40;99.90;;;;;;4996472;28;20092;-74
2024/03/17 04:50:26;;;;;;;6.97;2.75;;;7.40;99.90;;;;;;5017065;28;20406;-72
2024/03/17 04:52:52;;;;;;;7.03;2.97;;;7.40;99.90;;;;;;5016164;28;20438;-74
2024/03/17 04:55:18;;;;;;;4.45;2.55;;;7.40;99.90;;;;;;5017957;28;20037;-71
2024/03/17 04:57:44;;;;;;;11.43;4.20;;;7.40;99.90;;;;;;5011697;28;20122;-73
2024/03/17 05:00:12;;;;;;;9.98;3.85;;;7.40;99.90;;;;;;5018110;28;20038;-70
2024/03/17 05:02:38;;;;;;;13.77;4.53;;;7.50;99.90;;;;;;5009532;28;20033;-71
2024/03/17 05:05:05;;;;;;;8.48;3.15;;;7.40;99.90;;;;;;5017993;28;20120;-72
2024/03/17 05:07:31;;;;;;;6.68;3.20;;;7.40;99.90;;;;;;5016712;28;20041;-73
2024/03/17 05:09:57;;;;;;;5.93;3.13;;;7.40;99.90;;;;;;4995235;28;20041;-72
2024/03/17 05:12:22;;;;;;;7.95;2.63;;;7.30;99.90;;;;;;5010081;28;20056;-73
2024/03/17 05:14:48;;;;;;;10.20;3.13;;;7.30;99.90;;;;;;5015446;28;20062;-72
2024/03/17 05:17:14;;;;;;;9.18;3.75;;;7.40;99.90;;;;;;5016686;28;20046;-72
2024/03/17 05:19:39;;;;;;;10.52;3.53;;;7.30;99.90;;;;;;4994475;28;20030;-73
2024/03/17 05:22:05;;;;;;;7.85;3.30;;;7.30;99.90;;;;;;5015690;28;20116;-71
2024/03/17 05:24:31;;;;;;;8.10;3.63;;;7.30;99.90;;;;;;5013503;28;20042;-73
2024/03/17 05:26:56;;;;;;;7.10;2.72;;;7.30;99.90;;;;;;5014785;28;20030;-72
2024/03/17 05:29:22;;;;;;;8.98;4.05;;;7.20;99.90;;;;;;5013163;28;20030;-72
2024/03/17 05:31:49;;;;;;;7.18;3.13;;;7.20;99.90;;;;;;5017544;28;20033;-73
2024/03/17 05:34:14;;;;;;;9.23;3.90;;;7.10;99.90;;;;;;5015252;28;20103;-71
2024/03/17 05:36:40;;;;;;;14.63;3.67;;;7.10;99.90;;;;;;5005258;28;20034;-72
2024/03/17 05:39:05;;;;;;;9.57;3.50;;;7.10;99.90;;;;;;5014488;28;20030;-72
2024/03/17 05:41:31;;;;;;;9.00;3.55;;;7.10;99.90;;;;;;5014853;28;20050;-73
2024/03/17 05:44:03;;;;;;;7.40;3.38;;;7.00;99.90;;;;;;4998150;28;20029;-72
2024/03/17 05:46:29;;;;;;;7.10;3.20;;;7.00;99.90;;;;;;5019110;28;20041;-73
2024/03/17 05:48:55;;;;;;;8.82;4.00;;;7.00;99.90;;;;;;5013813;28;20041;-73
2024/03/17 05:51:21;;;;;;;9.00;4.28;;;7.00;99.90;;;;;;5014504;28;20171;-74
2024/03/17 05:53:46;;;;;;;9.40;3.72;;;6.90;99.90;;;;;;5011333;28;20437;-73
2024/03/17 05:56:13;;;;;;;11.15;4.32;;;7.00;99.90;;;;;;4994456;28;20072;-72
2024/03/17 05:58:39;;;;;;;8.15;3.83;;;7.00;99.90;;;;;;5016464;28;20029;-73
2024/03/17 06:01:07;;;;;;;9.68;3.70;;;7.00;99.90;;;;;;4994339;28;20032;-72
2024/03/17 06:03:35;;;;;;;7.72;3.58;;;7.10;99.90;;;;;;5013609;28;20030;-73
2024/03/17 06:06:01;;;;;;;6.22;3.13;;;7.10;99.90;;;;;;5011941;28;20034;-72
2024/03/17 06:08:27;;;;;;;7.55;3.47;;;7.20;99.90;;;;;;5018159;28;20063;-73
2024/03/17 06:10:52;;;;;;;8.68;4.15;;;7.20;99.90;;;;;;4991420;28;20099;-72
2024/03/17 06:13:18;;;;;;;9.20;3.15;;;7.20;99.90;;;;;;5016125;28;20030;-72
2024/03/17 06:15:45;;;;;;;8.32;3.35;;;7.30;99.90;;;;;;4996655;28;20080;-72
2024/03/17 06:18:14;;;;;;;7.10;3.47;;;7.30;99.90;;;;;;5021390;28;20029;-72
2024/03/17 06:20:47;;;;;;;10.52;5.47;;;7.30;99.90;;;;;;5010750;28;20032;-73
2024/03/17 06:23:13;;;;;;;6.95;3.47;;;7.40;99.90;;;;;;5018499;28;20041;-72
2024/03/17 06:25:43;;;;;;;7.60;3.92;;;7.30;99.90;;;;;;5010441;28;20538;-72
2024/03/17 06:28:13;;;;;;;7.67;3.20;;;7.50;99.90;;;;;;5014625;28;20055;-72
2024/03/17 06:30:42;;;;;;;8.30;3.30;;;7.50;99.90;;;;;;5014681;28;20116;-73
2024/03/17 06:33:12;;;;;;;6.10;3.15;;;7.60;99.90;;;;;;5019095;28;20052;-72
2024/03/17 06:35:38;;;;;;;10.40;3.33;;;7.60;99.90;;;;;;5014794;28;20026;-70
2024/03/17 06:38:04;;;;;;;6.97;3.45;;;7.70;99.90;;;;;;5014876;28;20280;-72
2024/03/17 06:40:30;;;;;;;7.78;3.45;;;7.70;99.90;;;;;;4996368;28;20037;-73
2024/03/17 06:42:56;;;;;;;7.95;3.58;;;7.80;99.90;;;;;;5014789;28;20045;-71
2024/03/17 06:45:22;;;;;;;6.22;3.33;;;7.80;99.90;;;;;;4994337;28;20053;-73
2024/03/17 06:47:48;;;;;;;11.88;3.40;;;7.70;99.90;;;;;;4994805;28;20060;-72
2024/03/17 06:50:14;;;;;;;7.30;3.25;;;7.80;99.90;;;;;;5010297;28;20033;-72
2024/03/17 06:52:40;;;;;;;7.82;3.50;;;7.90;99.90;;;;;;4989778;28;20494;-73
2024/03/17 06:55:07;;;;;;;8.70;3.15;;;7.80;99.90;;;;;;5000975;28;20084;-73
2024/03/17 06:57:33;;;;;;;7.82;3.38;;;7.80;99.90;;;;;;5009799;28;20126;-72
2024/03/17 07:00:00;;;;;;;8.65;3.30;;;7.80;99.90;;;;;;5011364;28;20129;-72
2024/03/17 07:02:25;;;;;;;5.93;2.78;;;7.90;99.90;;;;;;5007166;28;20045;-71
2024/03/17 07:04:51;;;;;;;6.53;3.10;;;7.90;99.90;;;;;;5011275;28;20040;-71
2024/03/17 07:07:16;;;;;;;7.38;3.95;;;8.00;99.90;;;;;;4988347;28;20053;-73
2024/03/17 07:09:42;;;;;;;6.72;2.95;;;8.10;99.90;;;;;;5003628;28;20037;-73
2024/03/17 07:12:11;;;;;;;6.07;3.03;;;8.20;99.90;;;;;;5010912;28;20514;-71
2024/03/17 07:14:37;;;;;;;7.32;3.30;;;8.30;99.90;;;;;;5010927;28;20038;-72
2024/03/17 07:17:03;;;;;;;7.95;3.47;;;8.30;99.90;;;;;;5013150;28;20038;-72
2024/03/17 07:19:28;;;;;;;6.28;3.42;;;8.30;99.90;;;;;;5015400;28;21245;-72
2024/03/17 07:21:54;;;;;;;5.68;3.03;;;8.40;99.90;;;;;;5009847;28;20372;-71
2024/03/17 07:24:20;;;;;;;7.60;2.95;;;8.50;99.90;;;;;;4988974;28;20372;-72
2024/03/17 07:26:48;;;;;;;6.70;3.40;;;8.60;99.90;;;;;;5009170;28;20069;-72
2024/03/17 07:29:14;;;;;;;8.27;3.28;;;8.60;99.90;;;;;;5011678;28;20720;-72
2024/03/17 07:31:39;;;;;;;7.85;3.53;;;8.70;99.90;;;;;;5006923;28;20080;-71
2024/03/17 07:34:05;;;;;;;4.60;2.60;;;8.70;99.90;;;;;;5009931;28;20033;-71
2024/03/17 07:36:30;;;;;;;6.63;3.20;;;8.90;99.90;;;;;;5010364;28;20030;-72
2024/03/17 07:38:56;;;;;;;6.95;3.05;;;8.90;99.90;;;;;;5010605;28;20095;-71
2024/03/17 07:41:24;;;;;;;6.25;3.17;;;9.00;99.90;;;;;;4999007;28;20038;-73
2024/03/17 07:43:49;;;;;;;8.38;4.00;;;9.10;99.90;;;;;;5011167;28;20564;-73
2024/03/17 07:46:15;;;;;;;9.48;3.50;;;9.10;99.90;;;;;;5009788;28;20041;-72
2024/03/17 07:48:42;;;;;;;8.00;3.45;;;9.20;99.90;;;;;;5014641;28;20040;-72
2024/03/17 07:51:11;;;;;;;7.05;3.80;;;9.20;99.90;;;;;;5013803;28;20026;-72
2024/03/17 07:53:38;;;;;;;6.45;3.22;;;9.20;99.90;;;;;;5016309;28;20498;-72
2024/03/17 07:56:09;;;;;;;7.78;3.25;;;9.20;99.90;;;;;;5011373;28;20038;-71
2024/03/17 07:58:35;;;;;;;6.95;3.72;;;9.30;99.90;;;;;;5015521;28;20041;-71
2024/03/17 08:01:03;;;;;;;8.07;3.38;;;9.30;99.90;;;;;;5006574;28;20045;-71
2024/03/17 08:03:33;;;;;;;7.47;3.00;;;9.30;99.90;;;;;;5008483;28;20044;-73
2024/03/17 08:06:00;;;;;;;6.18;3.47;;;9.30;99.90;;;;;;5010294;28;20553;-72
2024/03/17 08:08:26;;;;;;;6.35;3.60;;;9.30;99.90;;;;;;5014238;28;20033;-74
2024/03/17 08:10:52;;;;;;;10.00;2.90;;;9.30;99.90;;;;;;5010352;28;20104;-73
2024/03/17 08:13:18;;;;;;;5.03;2.88;;;9.30;99.90;;;;;;5015858;28;20038;-73
2024/03/17 08:15:45;;;;;;;5.35;3.45;;;9.30;99.90;;;;;;5011241;28;20125;-72
2024/03/17 08:18:11;;;;;;;7.90;3.53;;;9.30;99.90;;;;;;5015737;28;20410;-72
2024/03/17 08:20:42;;;;;;;7.07;3.50;;;9.30;99.90;;;;;;5010557;28;20065;-71
2024/03/17 08:23:08;;;;;;;9.98;4.05;;;9.30;99.90;;;;;;5010919;28;20029;-73
2024/03/17 08:25:34;;;;;;;7.10;3.30;;;9.40;99.90;;;;;;4992328;28;20036;-71
2024/03/17 08:28:01;;;;;;;6.43;3.33;;;9.40;99.90;;;;;;5013105;28;20068;-72
2024/03/17 08:30:26;;;;;;;7.95;2.88;;;9.50;99.90;;;;;;5009960;28;20033;-74
2024/03/17 08:32:52;;;;;;;8.82;3.78;;;9.60;99.90;;;;;;4998099;28;20038;-72
2024/03/17 08:35:17;;;;;;;6.63;2.92;;;9.70;99.90;;;;;;4995480;28;20038;-72
2024/03/17 08:37:44;;;;;;;8.60;4.22;;;9.80;99.90;;;;;;4998169;28;20045;-71
2024/03/17 08:40:10;;;;;;;11.05;3.63;;;9.90;99.90;;;;;;4998036;28;20542;-70
2024/03/17 08:42:36;;;;;;;5.50;3.17;;;9.90;99.90;;;;;;5020468;28;20124;-72
2024/03/17 08:45:02;;;;;;;8.23;3.55;;;10.10;99.90;;;;;;5008496;28;20033;-71
2024/03/17 08:47:28;;;;;;;10.25;3.90;;;10.10;99.90;;;;;;5016872;28;20038;-72
2024/03/17 08:49:54;;;;;;;7.55;3.28;;;10.30;99.90;;;;;;4986249;28;20075;-72
2024/03/17 08:52:20;;;;;;;5.85;2.80;;;10.30;99.90;;;;;;5011887;28;20037;-72
2024/03/17 08:54:47;;;;;;;9.68;3.45;;;10.40;99.90;;;;;;5007964;28;20042;-74
2024/03/17 08:57:13;;;;;;;5.35;2.80;;;10.60;99.90;;;;;;5010639;28;20038;-72
2024/03/17 08:59:39;;;;;;;7.57;2.90;;;10.60;99.90;;;;;;5014667;28;20037;-73
2024/03/17 09:02:06;;;;;;;5.60;2.78;;;10.50;99.90;;;;;;4997487;28;20402;-73
2024/03/17 09:04:31;;;;;;;5.90;3.10;;;10.60;99.90;;;;;;4999549;28;20509;-72
2024/03/17 09:06:57;;;;;;;6.38;3.03;;;10.50;99.90;;;;;;5018257;28;20034;-72
2024/03/17 09:09:23;;;;;;;7.78;3.00;;;10.60;99.90;;;;;;5015097;28;20041;-73
2024/03/17 09:11:48;;;;;;;6.35;3.40;;;10.50;99.90;;;;;;5014565;28;20049;-74
2024/03/17 09:14:14;;;;;;;7.88;2.72;;;10.50;99.90;;;;;;5015442;28;20033;-71
2024/03/17 09:16:39;;;;;;;5.70;3.00;;;10.40;99.90;;;;;;5015853;28;20042;-72
2024/03/17 09:19:05;;;;;;;5.32;3.13;;;10.50;99.90;;;;;;4995558;28;20422;-71
2024/03/17 09:21:31;;;;;;;4.80;2.50;;;10.50;99.90;;;;;;4994891;28;20368;-72
2024/03/17 09:23:56;;;;;;;5.78;2.55;;;10.60;99.90;;;;;;5013694;28;20112;-73
2024/03/17 09:26:22;;;;;;;7.63;2.95;;;10.60;99.90;;;;;;5016932;28;20477;-72
2024/03/17 09:28:47;;;;;;;6.40;2.95;;;10.50;99.90;;;;;;4994487;28;20483;-71
2024/03/17 09:31:13;;;;;;;8.10;4.10;;;10.60;99.90;;;;;;5013937;28;20108;-72
2024/03/17 09:33:39;;;;;;;8.70;3.45;;;10.50;99.90;;;;;;4998026;28;20033;-70
2024/03/17 09:36:10;;;;;;;7.15;3.00;;;10.60;99.90;;;;;;4999668;28;20029;-71
2024/03/17 09:38:37;;;;;;;5.97;3.13;;;10.50;99.90;;;;;;5017206;28;20508;-72
2024/03/17 09:41:03;;;;;;;6.70;3.40;;;10.60;99.90;;;;;;5015596;28;20028;-72
2024/03/17 09:43:33;;;;;;;6.95;2.92;;;10.60;99.90;;;;;;5018326;28;20041;-72
2024/03/17 09:45:58;;;;;;;7.35;2.97;;;10.60;99.90;;;;;;5013386;28;20404;-72
2024/03/17 09:48:30;;;;;;;5.22;2.33;;;10.60;99.90;;;;;;5012112;28;20035;-72
2024/03/17 09:51:01;;;;;;;6.05;2.70;;;10.60;99.90;;;;;;5010590;28;24441;-71
2024/03/17 09:53:28;;;;;;;8.23;3.85;;;10.60;99.90;;;;;;5012607;28;20427;-73
2024/03/17 09:56:20;;;;;;;9.23;3.40;;;10.70;99.90;;;;;;5005498;28;20125;-71
2024/03/17 09:58:47;;;;;;;9.40;3.22;;;10.80;99.90;;;;;;5015953;28;20045;-73
2024/03/17 10:01:13;;;;;;;6.55;3.33;;;11.00;99.90;;;;;;5015387;28;20121;-72
2024/03/17 10:03:51;;;;;;;5.15;2.80;;;11.10;99.90;;;;;;5011089;28;20271;-72
2024/03/17 10:06:24;;;;;;;8.30;3.78;;;11.20;99.90;;;;;;5000647;28;20513;-69
2024/03/17 10:08:52;;;;;;;7.57;2.97;;;11.40;99.90;;;;;;5009738;28;20029;-72
2024/03/17 10:11:31;;;;;;;5.80;2.83;;;11.50;99.90;;;;;;5010212;28;20045;-72
2024/03/17 10:14:09;;;;;;;7.20;2.88;;;11.70;99.90;;;;;;5009283;28;20060;-71
2024/03/17 10:16:37;;;;;;;5.93;2.63;;;11.80;99.90;;;;;;4991900;28;20045;-74
2024/03/17 10:19:21;;;;;;;5.32;2.70;;;11.90;99.90;;;;;;5014739;28;20053;-71
2024/03/17 10:21:50;;;;;;;4.63;2.53;;;12.00;99.90;;;;;;5012437;28;20041;-71
2024/03/17 10:24:24;;;;;;;7.38;2.63;;;12.20;99.90;;;;;;5011258;28;20522;-72
2024/03/17 10:26:57;;;;;;;6.65;3.03;;;12.30;99.90;;;;;;4990200;28;20030;-71
2024/03/17 10:29:32;;;;;;;5.50;2.22;;;12.30;99.90;;;;;;4991214;28;20068;-73
2024/03/17 10:32:01;;;;;;;6.13;2.50;;;12.50;99.90;;;;;;5011830;28;20115;-70
2024/03/17 10:34:36;;;;;;;4.63;2.47;;;12.50;99.90;;;;;;5006686;28;20583;-72
2024/03/17 10:37:11;;;;;;;6.32;2.45;;;12.60;99.90;;;;;;5011488;28;20263;-75
2024/03/17 10:39:38;;;;;;;6.00;3.00;;;12.60;99.90;;;;;;4995170;28;20038;-71
2024/03/17 10:42:05;;;;;;;7.82;2.97;;;12.70;99.90;;;;;;5001424;28;20060;-72
2024/03/17 10:44:32;;;;;;;5.80;2.33;;;12.70;99.90;;;;;;5006993;28;20432;-75
2024/03/17 10:47:00;;;;;;;8.45;2.85;;;12.80;99.90;;;;;;4993720;28;20462;-75
2024/03/17 10:49:33;;;;;;;5.72;2.50;;;12.90;99.90;;;;;;5012556;28;20026;-72
2024/03/17 10:52:08;;;;;;;4.80;2.53;;;13.00;99.90;;;;;;4998170;28;20033;-72
2024/03/17 10:54:34;;;;;;;5.32;2.65;;;12.90;99.90;;;;;;5012746;28;20092;-73
2024/03/17 10:57:27;;;;;;;7.22;2.50;;;12.90;99.90;;;;;;5011692;28;20152;-72
2024/03/17 10:59:52;;;;;;;3.80;2.33;;;12.90;99.90;;;;;;5007391;28;20135;-71
2024/03/17 11:02:28;;;;;;;7.50;3.00;;;12.90;99.90;;;;;;4994227;28;20069;-72
2024/03/17 11:04:59;;;;;;;6.30;2.70;;;12.90;99.90;;;;;;4995916;28;20037;-71
2024/03/17 11:07:26;;;;;;;4.80;2.15;;;12.90;99.90;;;;;;5009717;28;20045;-73
2024/03/17 11:09:55;;;;;;;5.53;2.33;;;12.90;99.90;;;;;;5014180;28;20623;-70
2024/03/17 11:12:56;;;;;;;8.35;2.70;;;12.90;99.90;;;;;;5004131;28;20109;-71
2024/03/17 11:15:30;;;;;;;3.55;2.33;;;13.00;99.90;;;;;;5005385;28;20037;-72
2024/03/17 11:18:21;;;;;;;6.25;2.10;;;13.00;99.90;;;;;;5004060;28;20815;-70
2024/03/17 11:21:10;;;;;;;5.85;2.13;;;13.00;99.90;;;;;;4991924;28;20043;-72
2024/03/17 11:23:37;;;;;;;7.47;2.35;;;13.10;99.90;;;;;;5013997;28;20046;-74
2024/03/17 11:26:04;;;;;;;5.63;2.60;;;13.10;99.90;;;;;;4998135;28;20045;-69
2024/03/17 11:28:42;;;;;;;5.28;2.38;;;13.10;99.90;;;;;;4995294;28;20042;-74
2024/03/17 11:31:33;;;;;;;6.05;2.60;;;13.10;99.90;;;;;;4997185;28;20095;-71
2024/03/17 11:34:02;;;;;;;10.10;2.97;;;13.00;99.90;;;;;;5009215;28;20037;-73
2024/03/17 11:36:28;;;;;;;6.03;2.00;;;13.00;99.90;;;;;;5003992;28;20041;-72
2024/03/17 11:39:27;;;;;;;5.50;2.45;;;13.10;99.90;;;;;;5016111;28;20034;-72
2024/03/17 11:41:53;;;;;;;5.63;2.67;;;13.10;99.90;;;;;;5012975;28;20045;-71
2024/03/17 11:44:36;;;;;;;7.70;2.53;;;13.20;99.90;;;;;;5015826;28;20038;-72
2024/03/17 11:47:03;;;;;;;6.25;2.97;;;13.20;99.90;;;;;;5011642;28;20061;-71
2024/03/17 11:49:33;;;;;;;5.75;2.83;;;13.40;99.90;;;;;;5014541;28;20025;-72
2024/03/17 11:52:01;;;;;;;5.45;2.25;;;13.40;99.90;;;;;;5014612;28;21498;-72
2024/03/17 11:54:36;;;;;;;4.93;2.58;;;13.40;99.90;;;;;;4998133;28;20095;-71
2024/03/17 11:57:07;;;;;;;6.90;2.40;;;13.50;99.90;;;;;;5012105;28;20693;-71
2024/03/17 11:59:33;;;;;;;5.15;2.58;;;13.50;99.90;;;;;;5012292;28;20091;-72
2024/03/17 12:02:00;;;;;;;4.63;2.25;;;13.50;99.90;;;;;;5015632;28;20458;-72
2024/03/17 12:04:26;;;;;;;6.03;2.35;;;13.50;99.90;;;;;;5015507;28;20113;-71
2024/03/17 12:06:56;;;;;;;5.05;2.28;;;13.40;99.90;;;;;;5000472;28;20141;-72
2024/03/17 12:09:24;;;;;;;7.30;2.47;;;13.40;99.90;;;;;;5014915;28;20040;-72
2024/03/17 12:12:00;;;;;;;6.28;2.33;;;13.40;99.90;;;;;;5010475;28;20038;-73
2024/03/17 12:14:26;;;;;;;5.70;2.35;;;13.50;99.90;;;;;;5014396;28;20034;-72
2024/03/17 12:16:59;;;;;;;7.47;2.22;;;13.50;99.90;;;;;;5013292;28;20033;-73
2024/03/17 12:19:26;;;;;;;6.85;2.72;;;13.50;99.90;;;;;;5015483;28;20068;-73
2024/03/17 12:22:02;;;;;;;11.55;3.00;;;13.50;99.90;;;;;;4998847;28;20061;-72
2024/03/17 12:24:31;;;;;;;9.00;1.98;;;13.50;99.90;;;;;;4999653;28;20048;-73
2024/03/17 12:27:02;;;;;;;5.57;2.78;;;13.50;99.90;;;;;;5019783;28;20029;-72
2024/03/17 12:29:41;;;;;;;13.32;2.95;;;13.50;99.90;;;;;;4997159;28;20103;-73
2024/03/17 12:32:11;;;;;;;7.93;3.50;;;13.40;99.90;;;;;;5000250;28;20045;-73
2024/03/17 12:34:37;;;;;;;5.43;2.60;;;13.40;99.90;;;;;;4988860;28;20045;-72
2024/03/17 12:37:04;;;;;;;6.72;2.88;;;13.40;99.90;;;;;;4987790;28;20734;-73
2024/03/17 12:39:31;;;;;;;6.15;2.60;;;13.20;99.90;;;;;;5018212;28;20034;-72
2024/03/17 12:42:09;;;;;;;4.40;2.50;;;13.20;99.90;;;;;;5024151;28;20038;-71
2024/03/17 12:44:41;;;;;;;5.25;2.38;;;13.10;99.90;;;;;;4998562;28;20041;-74
2024/03/17 12:47:17;;;;;;;8.05;2.60;;;13.10;99.90;;;;;;5005085;28;20091;-72
2024/03/17 12:49:52;;;;;;;6.18;3.00;;;13.10;99.90;;;;;;5019995;28;20061;-73
2024/03/17 12:52:19;;;;;;;8.82;3.20;;;13.20;99.90;;;;;;4995621;28;20026;-72
2024/03/17 12:54:52;;;;;;;7.30;2.67;;;13.10;99.90;;;;;;4999362;28;20133;-72
2024/03/17 13:00:33;;;;;;;6.63;3.17;;;13.20;99.90;;;;;;5013422;28;20064;-73
2024/03/17 13:03:00;;;;;;;10.48;2.40;;;13.30;99.90;;;;;;5017674;28;20506;-73